Time;durP1;ratioP1;P1;durP2;ratioP2;P2;SDS_P1;SDS_P2;PMS_P1;PMS_P2;Temp;Humidity;BMP_temperature;BMP_pressure;BME280_temperature;BME280_humidity;BME280_pressure;Samples;Min_cycle;Max_cycle;Signal;HPM_P1;HPM_P2
2023/07/23 00:02:16;;;;;;;5.55;3.45;;;19.70;81.20;;;;;;5026071;28;20548;-69
2023/07/23 00:05:02;;;;;;;6.85;4.28;;;19.70;81.30;;;;;;5020267;28;20371;-69
2023/07/23 00:07:48;;;;;;;5.97;3.90;;;19.80;81.40;;;;;;5010751;28;20104;-69
2023/07/23 00:10:34;;;;;;;5.70;3.92;;;19.70;81.10;;;;;;5021264;28;20077;-68
2023/07/23 00:13:20;;;;;;;5.57;3.50;;;19.70;81.10;;;;;;5010396;28;20053;-69
2023/07/23 00:16:06;;;;;;;6.65;3.67;;;19.70;80.90;;;;;;5024606;28;20041;-69
2023/07/23 00:18:52;;;;;;;7.57;4.57;;;19.70;81.00;;;;;;5013186;28;20038;-69
2023/07/23 00:21:37;;;;;;;5.97;3.80;;;19.70;81.00;;;;;;5031666;28;20046;-69
2023/07/23 00:24:23;;;;;;;6.80;3.80;;;19.70;81.00;;;;;;5025939;28;20129;-69
2023/07/23 00:27:10;;;;;;;6.82;4.53;;;19.70;81.00;;;;;;5031932;28;20446;-69
2023/07/23 00:29:56;;;;;;;7.18;4.22;;;19.60;80.90;;;;;;5033317;28;20490;-68
2023/07/23 00:32:42;;;;;;;8.23;4.13;;;19.60;80.70;;;;;;5026860;28;20395;-68
2023/07/23 00:35:28;;;;;;;6.43;4.40;;;19.70;80.70;;;;;;5023768;28;20053;-68
2023/07/23 00:38:14;;;;;;;5.85;4.03;;;19.60;80.70;;;;;;5031814;28;20371;-69
2023/07/23 00:41:00;;;;;;;5.95;4.25;;;19.60;80.90;;;;;;5014315;28;20045;-68
2023/07/23 00:43:46;;;;;;;6.25;4.00;;;19.60;80.70;;;;;;5012951;28;20129;-68
2023/07/23 00:46:32;;;;;;;5.35;3.92;;;19.70;80.80;;;;;;5031496;28;20045;-67
2023/07/23 00:49:18;;;;;;;5.82;3.60;;;19.60;80.70;;;;;;5030496;28;20084;-67
2023/07/23 00:52:06;;;;;;;6.97;4.22;;;19.70;80.70;;;;;;5031107;28;20046;-68
2023/07/23 00:54:54;;;;;;;8.73;3.50;;;19.60;80.80;;;;;;5012908;28;20201;-68
2023/07/23 00:57:40;;;;;;;5.55;4.10;;;19.60;80.90;;;;;;5012322;28;20438;-68
2023/07/23 01:00:26;;;;;;;5.53;4.05;;;19.60;81.40;;;;;;5010792;28;20120;-68
2023/07/23 01:03:12;;;;;;;5.95;3.58;;;19.70;81.30;;;;;;5022084;28;20034;-68
2023/07/23 01:06:02;;;;;;;7.68;4.18;;;19.60;81.00;;;;;;5027124;28;20041;-68
2023/07/23 01:08:49;;;;;;;7.15;3.90;;;19.60;80.90;;;;;;5029943;28;20506;-60
2023/07/23 01:11:35;;;;;;;6.47;4.07;;;19.60;81.10;;;;;;5011854;28;20198;-60
2023/07/23 01:14:22;;;;;;;5.38;3.88;;;19.60;81.10;;;;;;5028513;28;20410;-60
2023/07/23 01:17:09;;;;;;;5.82;3.58;;;19.60;81.00;;;;;;5031437;28;20156;-60
2023/07/23 01:20:05;;;;;;;5.30;3.65;;;19.60;81.00;;;;;;5021533;28;20060;-60
2023/07/23 01:22:57;;;;;;;6.25;3.60;;;19.60;81.10;;;;;;5011956;28;20053;-60
2023/07/23 01:25:43;;;;;;;4.85;3.70;;;19.60;81.10;;;;;;5010692;28;20088;-60
2023/07/23 01:28:29;;;;;;;5.55;3.83;;;19.60;81.10;;;;;;5012229;28;20050;-60
2023/07/23 01:31:15;;;;;;;5.68;3.95;;;19.60;81.30;;;;;;5030361;28;20045;-60
2023/07/23 01:34:04;;;;;;;7.32;3.47;;;19.60;81.20;;;;;;5028193;28;20049;-60
2023/07/23 01:36:52;;;;;;;6.20;4.15;;;19.60;81.50;;;;;;5012061;28;20057;-60
2023/07/23 01:39:38;;;;;;;7.05;4.55;;;19.60;81.50;;;;;;5015219;28;20499;-60
2023/07/23 01:42:24;;;;;;;6.43;3.97;;;19.60;81.50;;;;;;5019490;28;20104;-60
2023/07/23 01:45:12;;;;;;;5.90;3.55;;;19.60;81.50;;;;;;5018911;28;20443;-60
2023/07/23 01:47:58;;;;;;;4.93;3.42;;;19.60;81.70;;;;;;5010881;28;20088;-60
2023/07/23 01:50:45;;;;;;;5.03;3.53;;;19.70;81.80;;;;;;5010432;28;20490;-60
2023/07/23 01:53:31;;;;;;;5.95;4.28;;;19.70;82.00;;;;;;5010701;28;20191;-60
2023/07/23 01:56:17;;;;;;;5.68;3.80;;;19.70;82.40;;;;;;5010951;28;20050;-61
2023/07/23 01:59:04;;;;;;;5.47;3.90;;;19.70;82.90;;;;;;5019955;28;20065;-60
2023/07/23 02:01:50;;;;;;;5.75;4.00;;;19.70;83.50;;;;;;5027589;28;20076;-59
2023/07/23 02:04:36;;;;;;;5.13;3.63;;;19.70;83.70;;;;;;5029873;28;20044;-59
2023/07/23 02:07:22;;;;;;;6.28;3.70;;;19.70;83.80;;;;;;5025162;28;20269;-59
2023/07/23 02:10:08;;;;;;;6.60;3.65;;;19.70;84.20;;;;;;5011068;28;20046;-62
2023/07/23 02:12:55;;;;;;;5.40;3.45;;;19.70;84.60;;;;;;5023196;28;20041;-59
2023/07/23 02:15:40;;;;;;;5.88;3.83;;;19.70;84.90;;;;;;5030369;28;20056;-60
2023/07/23 02:18:28;;;;;;;5.85;3.80;;;19.70;84.90;;;;;;5009984;28;20049;-59
2023/07/23 02:21:14;;;;;;;4.90;3.67;;;19.70;85.00;;;;;;5011430;28;20033;-59
2023/07/23 02:23:59;;;;;;;7.65;3.78;;;19.70;85.40;;;;;;5018650;28;20448;-60
2023/07/23 02:26:45;;;;;;;5.97;3.70;;;19.60;85.50;;;;;;5028166;28;20461;-59
2023/07/23 02:29:32;;;;;;;5.85;3.78;;;19.60;85.90;;;;;;5028995;28;20488;-59
2023/07/23 02:32:17;;;;;;;6.70;4.55;;;19.60;86.20;;;;;;5029270;28;20057;-59
2023/07/23 02:35:04;;;;;;;5.35;4.00;;;19.50;86.30;;;;;;5023682;28;20042;-60
2023/07/23 02:37:50;;;;;;;6.18;4.03;;;19.50;86.50;;;;;;5023378;28;20049;-60
2023/07/23 02:40:36;;;;;;;6.45;4.07;;;19.40;86.80;;;;;;5022955;28;20038;-60
2023/07/23 02:43:22;;;;;;;5.35;3.92;;;19.40;87.10;;;;;;5027544;28;20407;-60
2023/07/23 02:46:08;;;;;;;7.72;3.42;;;19.40;87.40;;;;;;5028480;28;20095;-60
2023/07/23 02:48:53;;;;;;;5.28;3.58;;;19.40;87.90;;;;;;5011390;28;20105;-59
2023/07/23 02:51:40;;;;;;;6.45;4.43;;;19.40;88.10;;;;;;5008613;28;20042;-60
2023/07/23 02:54:26;;;;;;;5.93;3.88;;;19.40;88.70;;;;;;5010056;28;20053;-60
2023/07/23 02:57:11;;;;;;;9.02;4.20;;;19.30;89.10;;;;;;5011909;28;20061;-60
2023/07/23 02:59:57;;;;;;;6.53;4.40;;;19.30;89.80;;;;;;5028767;28;20046;-60
2023/07/23 03:02:43;;;;;;;7.15;4.25;;;19.30;90.20;;;;;;5024178;28;20449;-60
2023/07/23 03:05:29;;;;;;;6.03;4.45;;;19.30;90.40;;;;;;5032996;28;20044;-60
2023/07/23 03:08:15;;;;;;;6.00;4.30;;;19.20;90.60;;;;;;5021693;28;20066;-60
2023/07/23 03:11:04;;;;;;;6.90;4.72;;;19.20;90.90;;;;;;5024375;28;20120;-59
2023/07/23 03:13:50;;;;;;;7.28;4.57;;;19.10;91.00;;;;;;5027342;28;20042;-60
2023/07/23 03:16:37;;;;;;;9.65;4.55;;;19.10;91.20;;;;;;5022368;28;20046;-60
2023/07/23 03:19:23;;;;;;;5.90;4.18;;;19.10;91.40;;;;;;5022167;28;20401;-60
2023/07/23 03:22:09;;;;;;;7.63;4.45;;;19.00;91.60;;;;;;5028558;28;20418;-60
2023/07/23 03:24:55;;;;;;;6.70;4.85;;;19.00;91.70;;;;;;5021760;28;20046;-60
2023/07/23 03:27:41;;;;;;;5.55;4.10;;;19.00;91.90;;;;;;5021455;28;20064;-60
2023/07/23 03:30:27;;;;;;;5.70;3.70;;;19.00;92.00;;;;;;5028412;28;20426;-60
2023/07/23 03:33:13;;;;;;;7.05;4.50;;;19.00;92.20;;;;;;5009722;28;20056;-60
2023/07/23 03:35:59;;;;;;;6.97;4.55;;;19.10;92.30;;;;;;5009140;28;20037;-59
2023/07/23 03:38:45;;;;;;;7.20;4.40;;;19.10;92.60;;;;;;5007763;28;20052;-60
2023/07/23 03:41:31;;;;;;;6.72;4.57;;;19.10;92.40;;;;;;5010175;28;20461;-60
2023/07/23 03:44:17;;;;;;;5.65;4.43;;;19.10;92.60;;;;;;5025593;28;20478;-59
2023/07/23 03:47:10;;;;;;;8.55;4.43;;;19.10;92.80;;;;;;5020723;28;20057;-60
2023/07/23 03:49:56;;;;;;;7.32;4.25;;;19.10;93.00;;;;;;5012548;28;20038;-59
2023/07/23 03:52:41;;;;;;;5.90;4.28;;;19.10;93.10;;;;;;5026243;28;20053;-60
2023/07/23 03:55:27;;;;;;;6.20;4.45;;;19.10;93.10;;;;;;5032402;28;20050;-60
2023/07/23 03:58:13;;;;;;;6.38;4.78;;;19.10;93.10;;;;;;5030137;28;20388;-60
2023/07/23 04:00:59;;;;;;;6.47;4.13;;;19.00;93.30;;;;;;5011796;28;20108;-60
2023/07/23 04:03:45;;;;;;;6.55;4.63;;;19.10;93.40;;;;;;5015983;28;20054;-59
2023/07/23 04:06:31;;;;;;;7.10;4.70;;;19.10;93.50;;;;;;5012177;28;20045;-59
2023/07/23 04:09:18;;;;;;;6.03;4.38;;;19.00;93.60;;;;;;5013609;28;20470;-59
2023/07/23 04:12:05;;;;;;;6.78;4.60;;;19.00;93.70;;;;;;5022546;28;20053;-59
2023/07/23 04:14:51;;;;;;;6.93;4.65;;;19.10;93.80;;;;;;5013932;28;20068;-59
2023/07/23 04:17:37;;;;;;;7.07;4.80;;;19.10;93.90;;;;;;5026581;28;20045;-59
2023/07/23 04:20:23;;;;;;;6.65;4.07;;;19.10;94.00;;;;;;5030966;28;20049;-60
2023/07/23 04:23:09;;;;;;;6.55;4.55;;;19.10;94.00;;;;;;5030831;28;20118;-59
2023/07/23 04:25:55;;;;;;;7.15;4.97;;;19.10;94.10;;;;;;5030159;28;20489;-60
2023/07/23 04:28:41;;;;;;;5.18;4.05;;;19.10;94.10;;;;;;5012472;28;20124;-61
2023/07/23 04:31:27;;;;;;;6.18;4.15;;;19.10;94.20;;;;;;5014397;28;20466;-60
2023/07/23 04:34:13;;;;;;;6.78;4.75;;;19.10;94.30;;;;;;5029674;28;20384;-60
2023/07/23 04:36:59;;;;;;;7.57;4.45;;;19.20;94.40;;;;;;5021775;28;20422;-60
2023/07/23 04:39:45;;;;;;;6.53;4.53;;;19.10;94.50;;;;;;5029631;28;20038;-60
2023/07/23 04:42:31;;;;;;;5.93;4.50;;;19.10;94.60;;;;;;5019200;28;20542;-60
2023/07/23 04:45:16;;;;;;;7.10;4.70;;;19.10;94.70;;;;;;5021325;28;20419;-59
2023/07/23 04:48:03;;;;;;;7.03;4.65;;;19.10;94.80;;;;;;5029560;28;20425;-59
2023/07/23 04:51:00;;;;;;;7.70;4.90;;;19.20;94.90;;;;;;5025950;28;20057;-60
2023/07/23 04:53:45;;;;;;;5.72;4.20;;;19.20;95.00;;;;;;5012482;28;20494;-60
2023/07/23 04:56:31;;;;;;;7.20;4.95;;;19.20;95.00;;;;;;5015950;28;20422;-60
2023/07/23 04:59:17;;;;;;;8.90;5.28;;;19.20;95.10;;;;;;5018645;28;20046;-60
2023/07/23 05:02:03;;;;;;;7.60;4.65;;;19.20;95.10;;;;;;5019187;28;20087;-60
2023/07/23 05:04:50;;;;;;;6.55;4.70;;;19.20;95.20;;;;;;5011422;28;20080;-60
2023/07/23 05:07:35;;;;;;;5.90;4.10;;;19.30;95.30;;;;;;5023432;28;20057;-60
2023/07/23 05:10:21;;;;;;;7.80;4.55;;;19.30;95.30;;;;;;5012990;28;20038;-59
2023/07/23 05:13:07;;;;;;;8.40;4.90;;;19.40;95.30;;;;;;5012422;28;20048;-59
2023/07/23 05:15:53;;;;;;;6.57;4.82;;;19.40;95.30;;;;;;5011798;28;20050;-60
2023/07/23 05:18:39;;;;;;;6.35;4.47;;;19.40;95.30;;;;;;5012930;28;20042;-60
2023/07/23 05:21:25;;;;;;;5.72;4.22;;;19.50;95.30;;;;;;5010649;28;20033;-60
2023/07/23 05:24:11;;;;;;;6.72;4.43;;;19.50;95.20;;;;;;5026106;28;20045;-60
2023/07/23 05:26:58;;;;;;;6.45;4.35;;;19.50;95.30;;;;;;5028929;28;20085;-60
2023/07/23 05:29:44;;;;;;;5.47;4.43;;;19.50;95.40;;;;;;5028413;28;20042;-60
2023/07/23 05:32:31;;;;;;;10.88;4.45;;;19.50;95.40;;;;;;5020881;28;20476;-58
2023/07/23 05:35:17;;;;;;;9.15;4.68;;;19.60;95.50;;;;;;5031155;28;20494;-60
2023/07/23 05:38:03;;;;;;;12.27;5.53;;;19.60;95.50;;;;;;5011938;28;20050;-60
2023/07/23 05:40:58;;;;;;;6.85;4.90;;;19.60;95.60;;;;;;5012269;28;20117;-72
2023/07/23 05:43:44;;;;;;;6.82;4.70;;;19.60;95.60;;;;;;5031161;28;20045;-71
2023/07/23 05:46:30;;;;;;;6.97;4.70;;;19.60;95.70;;;;;;5023512;28;20037;-66
2023/07/23 06:32:03;;;;;;;6.53;3.95;;;21.10;95.60;;;;;;5052725;28;20097;-68
2023/07/23 06:34:49;;;;;;;9.02;4.97;;;21.20;95.10;;;;;;5058159;28;20043;-68
2023/07/23 06:37:35;;;;;;;5.82;3.67;;;21.30;94.80;;;;;;5048951;28;20059;-69
2023/07/23 06:40:20;;;;;;;6.03;4.03;;;21.40;94.70;;;;;;5045351;28;20070;-71
2023/07/23 06:43:06;;;;;;;6.82;4.20;;;21.50;94.50;;;;;;5050514;28;20087;-69
2023/07/23 06:45:53;;;;;;;7.65;4.30;;;21.50;94.40;;;;;;5070233;28;20051;-70
2023/07/23 06:48:39;;;;;;;5.75;3.50;;;21.60;94.00;;;;;;5050857;28;20094;-68
2023/07/23 06:51:25;;;;;;;5.32;3.60;;;21.60;94.00;;;;;;5065075;28;20045;-68
2023/07/23 06:54:12;;;;;;;5.75;4.05;;;21.60;93.80;;;;;;5067681;28;20036;-69
2023/07/23 06:56:58;;;;;;;6.53;4.15;;;21.70;93.90;;;;;;5041142;28;20037;-68
2023/07/23 06:59:46;;;;;;;5.63;3.25;;;21.80;93.90;;;;;;5061695;28;20041;-69
2023/07/23 07:02:32;;;;;;;6.85;3.75;;;21.90;93.90;;;;;;5050213;28;20405;-69
2023/07/23 07:05:18;;;;;;;7.13;3.75;;;21.90;93.60;;;;;;5043171;28;20101;-70
2023/07/23 07:08:04;;;;;;;6.90;4.18;;;22.00;93.10;;;;;;5050781;28;20090;-70
2023/07/23 07:10:57;;;;;;;6.50;4.28;;;22.10;93.10;;;;;;5062027;28;20563;-68
2023/07/23 07:13:43;;;;;;;6.55;3.70;;;22.10;92.90;;;;;;5053358;28;20041;-69
2023/07/23 07:16:29;;;;;;;6.22;4.15;;;22.20;92.70;;;;;;5061291;28;20041;-59
2023/07/23 07:19:16;;;;;;;6.15;3.75;;;22.20;92.70;;;;;;5060360;28;20048;-59
2023/07/23 07:22:03;;;;;;;7.82;4.13;;;22.30;92.70;;;;;;5047662;28;20067;-59
2023/07/23 07:24:49;;;;;;;5.45;3.90;;;22.40;92.40;;;;;;5053321;28;20068;-60
2023/07/23 07:27:35;;;;;;;8.30;4.63;;;22.50;92.30;;;;;;5056786;28;20068;-60
2023/07/23 07:30:21;;;;;;;5.20;3.50;;;22.70;92.10;;;;;;5061722;28;20809;-59
2023/07/23 07:33:07;;;;;;;5.90;4.28;;;22.80;91.90;;;;;;5059053;28;20064;-59
2023/07/23 07:35:55;;;;;;;7.05;3.92;;;22.90;91.90;;;;;;5063562;28;20129;-61
2023/07/23 07:38:41;;;;;;;5.18;3.22;;;23.00;91.50;;;;;;5050482;28;20513;-59
2023/07/23 07:41:27;;;;;;;5.63;3.63;;;23.10;91.70;;;;;;5052608;28;20043;-59
2023/07/23 07:44:13;;;;;;;7.10;3.72;;;23.10;91.40;;;;;;5045777;28;20041;-61
2023/07/23 07:46:59;;;;;;;5.45;3.75;;;23.20;91.30;;;;;;5062097;28;20052;-59
2023/07/23 07:49:45;;;;;;;5.28;3.45;;;23.30;91.40;;;;;;5062175;28;20368;-60
2023/07/23 07:52:31;;;;;;;5.85;3.70;;;23.40;91.20;;;;;;5057678;28;20121;-60
2023/07/23 07:55:17;;;;;;;5.85;3.75;;;23.60;91.00;;;;;;5066229;28;20047;-59
2023/07/23 07:58:03;;;;;;;5.03;3.08;;;23.70;90.90;;;;;;5059638;28;20520;-62
2023/07/23 08:00:50;;;;;;;4.70;3.38;;;23.80;90.60;;;;;;5055756;28;20065;-62
2023/07/23 08:03:37;;;;;;;7.18;3.83;;;23.90;90.30;;;;;;5039571;28;20045;-63
2023/07/23 08:06:24;;;;;;;4.90;3.13;;;24.00;89.40;;;;;;5044378;28;20037;-62
2023/07/23 08:09:12;;;;;;;6.00;3.72;;;24.00;88.80;;;;;;5065360;28;20052;-58
2023/07/23 08:12:00;;;;;;;7.88;3.35;;;24.00;88.40;;;;;;5035876;28;20413;-59
2023/07/23 08:14:46;;;;;;;5.63;2.92;;;24.00;87.60;;;;;;5036833;28;20049;-61
2023/07/23 08:17:34;;;;;;;5.55;3.55;;;23.90;87.40;;;;;;5057607;28;20036;-61
2023/07/23 08:20:20;;;;;;;5.13;2.90;;;23.90;87.30;;;;;;5059182;28;20244;-60
2023/07/23 08:23:06;;;;;;;6.78;3.42;;;23.90;86.90;;;;;;5059990;28;20390;-61
2023/07/23 08:25:56;;;;;;;5.97;3.83;;;23.90;87.20;;;;;;5052877;28;20056;-62
2023/07/23 08:28:49;;;;;;;6.35;3.17;;;23.90;86.60;;;;;;5056526;28;20056;-59
2023/07/23 08:31:36;;;;;;;5.55;3.22;;;23.90;86.70;;;;;;5065857;28;20064;-59
2023/07/23 08:34:22;;;;;;;5.25;3.22;;;23.90;86.30;;;;;;5063399;28;20048;-60
2023/07/23 08:37:09;;;;;;;4.78;3.40;;;23.90;85.90;;;;;;5064999;28;20043;-60
2023/07/23 08:39:55;;;;;;;5.25;3.13;;;23.90;85.90;;;;;;5063406;28;20049;-59
2023/07/23 08:43:05;;;;;;;3.95;2.70;;;23.90;85.90;;;;;;5053236;28;20072;-58
2023/07/23 08:46:10;;;;;;;4.57;2.88;;;24.00;85.10;;;;;;5064383;28;20756;-59
2023/07/23 08:49:03;;;;;;;9.18;3.38;;;24.00;84.60;;;;;;5065509;28;20056;-59
2023/07/23 08:51:49;;;;;;;5.88;3.13;;;24.10;85.00;;;;;;5056036;28;20048;-59
2023/07/23 08:54:36;;;;;;;4.32;3.30;;;24.10;84.90;;;;;;5051905;28;20041;-62
2023/07/23 08:57:22;;;;;;;5.45;2.97;;;24.20;84.30;;;;;;5056439;28;20182;-59
2023/07/23 09:00:09;;;;;;;4.35;2.75;;;24.30;84.10;;;;;;5072019;28;20049;-58
2023/07/23 09:02:55;;;;;;;3.67;2.53;;;24.30;84.00;;;;;;5056629;28;20046;-61
2023/07/23 09:05:41;;;;;;;4.47;2.47;;;24.30;84.10;;;;;;5070316;28;20561;-60
2023/07/23 09:08:27;;;;;;;4.60;3.08;;;24.30;83.50;;;;;;5067963;28;20400;-60
2023/07/23 09:11:13;;;;;;;4.05;2.75;;;24.40;83.50;;;;;;5062542;28;21814;-60
2023/07/23 09:14:06;;;;;;;4.47;2.95;;;24.60;83.00;;;;;;5063019;28;20048;-60
2023/07/23 09:16:52;;;;;;;4.22;2.72;;;24.70;82.00;;;;;;5064141;28;20123;-60
2023/07/23 09:19:40;;;;;;;3.45;2.15;;;24.80;82.10;;;;;;5065129;28;20054;-60
2023/07/23 09:22:31;;;;;;;5.32;2.92;;;24.90;81.90;;;;;;5051054;28;20094;-60
2023/07/23 09:25:18;;;;;;;4.78;2.72;;;24.90;81.20;;;;;;5066641;28;20986;-59
2023/07/23 09:28:05;;;;;;;5.30;3.42;;;25.00;81.10;;;;;;5055989;28;20052;-62
2023/07/23 09:30:55;;;;;;;4.78;2.95;;;25.10;80.20;;;;;;5047059;28;20037;-61
2023/07/23 09:36:19;;;;;;;5.35;2.95;;;25.20;80.10;;;;;;5024008;22;20494;-72
2023/07/23 09:39:06;;;;;;;5.38;2.95;;;25.30;80.00;;;;;;4991815;28;20353;-72
2023/07/23 09:41:52;;;;;;;4.35;3.08;;;25.30;79.80;;;;;;4994225;28;20061;-73
2023/07/23 09:44:42;;;;;;;6.70;3.28;;;25.40;79.30;;;;;;4998081;28;20414;-73
2023/07/23 09:47:28;;;;;;;6.43;3.47;;;25.50;78.20;;;;;;5005889;28;20046;-72
2023/07/23 09:50:14;;;;;;;5.95;3.30;;;25.50;78.70;;;;;;4996823;28;20065;-72
2023/07/23 09:53:00;;;;;;;6.00;2.53;;;25.50;77.90;;;;;;4996800;28;20038;-72
2023/07/23 09:55:47;;;;;;;5.38;3.33;;;25.60;78.00;;;;;;5006757;28;20116;-71
2023/07/23 09:58:37;;;;;;;4.57;2.35;;;25.50;77.40;;;;;;4998231;28;20046;-73
2023/07/23 10:01:23;;;;;;;5.55;2.85;;;25.50;77.30;;;;;;5003223;28;20050;-72
2023/07/23 10:04:11;;;;;;;5.28;3.13;;;25.60;77.40;;;;;;5007841;28;20037;-73
2023/07/23 10:06:57;;;;;;;4.32;2.60;;;25.70;77.50;;;;;;5007687;28;20487;-72
2023/07/23 10:09:43;;;;;;;5.47;3.33;;;25.70;77.60;;;;;;5008648;28;20516;-72
2023/07/23 10:12:29;;;;;;;3.78;2.28;;;25.80;77.80;;;;;;4991549;28;20071;-71
2023/07/23 10:15:15;;;;;;;4.32;2.92;;;25.90;77.60;;;;;;5004733;28;20188;-72
2023/07/23 10:18:02;;;;;;;4.20;2.92;;;25.90;77.10;;;;;;4999495;28;20044;-72
2023/07/23 10:20:49;;;;;;;4.40;2.58;;;26.00;76.30;;;;;;5000244;28;20064;-77
2023/07/23 10:23:37;;;;;;;5.32;2.65;;;26.10;75.50;;;;;;4991048;28;20084;-72
2023/07/23 10:26:28;;;;;;;5.32;2.92;;;26.10;75.50;;;;;;5001336;28;20049;-75
2023/07/23 10:29:21;;;;;;;4.45;2.58;;;26.20;75.70;;;;;;4991073;28;20058;-76
2023/07/23 10:32:26;;;;;;;6.97;2.42;;;26.30;75.40;;;;;;5006934;28;20037;-74
2023/07/23 10:35:12;;;;;;;4.63;2.83;;;26.30;75.60;;;;;;4983429;28;20038;-74
2023/07/23 10:38:19;;;;;;;6.00;2.83;;;26.30;74.50;;;;;;5004336;28;20049;-73
2023/07/23 10:41:06;;;;;;;4.72;2.85;;;26.40;74.20;;;;;;5001291;28;20061;-74
2023/07/23 10:43:52;;;;;;;4.85;2.55;;;26.50;73.30;;;;;;4995977;28;20503;-72
2023/07/23 10:46:38;;;;;;;3.90;2.75;;;26.60;72.50;;;;;;5000370;28;20038;-73
2023/07/23 10:49:29;;;;;;;5.15;2.67;;;26.70;72.50;;;;;;5005535;28;20045;-73
2023/07/23 10:52:17;;;;;;;5.03;2.63;;;26.80;72.20;;;;;;4987295;28;20453;-73
2023/07/23 10:55:04;;;;;;;5.65;2.83;;;26.80;72.20;;;;;;4994066;28;20041;-73
2023/07/23 10:57:53;;;;;;;4.28;2.70;;;26.90;71.90;;;;;;5006446;28;20388;-72
2023/07/23 11:00:46;;;;;;;3.90;2.40;;;26.90;72.50;;;;;;5004270;28;20049;-73
2023/07/23 11:03:32;;;;;;;4.43;2.88;;;27.00;72.10;;;;;;4998637;28;20121;-73
2023/07/23 11:06:29;;;;;;;4.32;2.90;;;27.10;72.30;;;;;;5004318;28;20046;-73
2023/07/23 11:09:24;;;;;;;5.40;2.88;;;27.10;71.70;;;;;;4991512;28;20046;-73
2023/07/23 11:12:12;;;;;;;5.40;2.90;;;27.10;72.60;;;;;;4996783;28;20561;-73
2023/07/23 11:14:59;;;;;;;5.00;3.10;;;27.20;71.80;;;;;;4998380;28;20045;-73
2023/07/23 11:17:45;;;;;;;5.82;2.80;;;27.30;71.60;;;;;;5006467;28;20052;-74
2023/07/23 11:20:31;;;;;;;5.63;2.67;;;27.40;71.20;;;;;;5007856;28;20038;-73
2023/07/23 11:23:20;;;;;;;5.88;2.97;;;27.50;71.10;;;;;;4997527;28;20047;-73
2023/07/23 11:26:06;;;;;;;7.57;3.15;;;27.50;71.80;;;;;;5001703;28;20494;-73
2023/07/23 11:28:52;;;;;;;6.20;2.80;;;27.60;71.20;;;;;;5006482;28;20076;-74
2023/07/23 11:31:38;;;;;;;4.30;2.70;;;27.70;70.90;;;;;;4995907;28;20039;-73
2023/07/23 11:34:25;;;;;;;4.00;2.63;;;27.70;70.40;;;;;;4989823;28;20092;-74
2023/07/23 11:37:10;;;;;;;4.63;2.72;;;27.70;70.10;;;;;;4989196;28;20045;-75
2023/07/23 11:39:56;;;;;;;4.22;2.83;;;27.70;70.40;;;;;;5002179;28;20048;-75
2023/07/23 11:42:42;;;;;;;4.18;2.83;;;27.80;70.10;;;;;;5003837;28;20505;-74
2023/07/23 11:45:28;;;;;;;4.30;2.63;;;27.80;69.70;;;;;;4987319;28;20057;-74
2023/07/23 11:48:16;;;;;;;4.88;3.70;;;27.90;69.50;;;;;;4999497;28;20127;-75
2023/07/23 11:51:02;;;;;;;6.55;3.03;;;27.90;69.20;;;;;;4988814;28;20038;-73
2023/07/23 11:53:51;;;;;;;4.10;2.70;;;27.90;69.10;;;;;;4990368;28;20053;-72
2023/07/23 11:56:46;;;;;;;3.67;2.70;;;28.00;69.40;;;;;;4989036;28;20510;-77
2023/07/23 11:59:33;;;;;;;;;;;28.00;68.50;;;;;;5006305;28;20088;-70
2023/07/23 12:02:19;;;;;;;5.13;2.47;;;28.10;69.60;;;;;;4994364;28;20001;-70
2023/07/23 12:05:06;;;;;;;6.20;2.97;;;28.20;68.10;;;;;;5001869;28;20052;-69
2023/07/23 12:07:52;;;;;;;5.13;2.42;;;28.20;67.30;;;;;;4999067;28;20395;-69
2023/07/23 12:10:40;;;;;;;4.22;2.55;;;28.20;66.30;;;;;;5001694;28;20045;-69
2023/07/23 12:13:26;;;;;;;4.00;2.60;;;28.20;65.50;;;;;;5007722;28;20046;-69
2023/07/23 12:16:32;;;;;;;3.15;2.30;;;28.30;64.90;;;;;;5012568;28;20049;-69
2023/07/23 12:19:21;;;;;;;4.25;2.83;;;28.40;64.60;;;;;;5000213;28;20465;-70
2023/07/23 12:22:08;;;;;;;4.70;2.67;;;28.40;63.60;;;;;;4994972;28;20083;-70
2023/07/23 12:24:55;;;;;;;3.78;2.30;;;28.40;63.40;;;;;;5011029;28;20376;-71
2023/07/23 12:27:41;;;;;;;5.05;2.60;;;28.40;63.60;;;;;;4992208;28;20054;-79
2023/07/23 12:30:27;;;;;;;4.25;2.50;;;28.40;62.80;;;;;;4991986;28;20066;-77
2023/07/23 12:33:13;;;;;;;6.72;2.53;;;28.40;61.40;;;;;;4998213;28;20070;-76
2023/07/23 12:35:58;;;;;;;4.45;2.30;;;28.50;60.90;;;;;;5000132;28;20193;-75
2023/07/23 12:38:45;;;;;;;6.18;2.67;;;28.50;60.10;;;;;;5009665;28;20054;-74
2023/07/23 12:41:31;;;;;;;3.35;2.10;;;28.50;59.60;;;;;;5005416;28;20039;-74
2023/07/23 12:44:17;;;;;;;4.50;2.22;;;28.40;59.60;;;;;;5007984;28;20049;-75
2023/07/23 12:47:03;;;;;;;3.75;2.17;;;28.50;59.00;;;;;;5011871;28;20422;-72
2023/07/23 12:49:50;;;;;;;5.35;2.17;;;28.50;59.10;;;;;;5011409;28;20407;-73
2023/07/23 12:52:36;;;;;;;4.68;2.63;;;28.60;59.10;;;;;;5003241;28;20046;-75
2023/07/23 12:55:21;;;;;;;3.95;2.22;;;28.70;59.00;;;;;;4999940;28;20508;-72
2023/07/23 12:58:07;;;;;;;3.25;2.42;;;28.70;58.40;;;;;;5003251;28;20077;-74
2023/07/23 13:00:53;;;;;;;7.18;2.08;;;28.80;58.90;;;;;;5002999;28;20038;-74
2023/07/23 13:03:39;;;;;;;4.20;1.88;;;28.80;59.00;;;;;;5005506;28;20050;-73
2023/07/23 13:06:25;;;;;;;5.38;2.63;;;28.80;58.00;;;;;;4995138;28;20573;-74
2023/07/23 13:09:11;;;;;;;6.05;1.95;;;28.80;58.00;;;;;;5000261;28;20057;-74
2023/07/23 13:11:57;;;;;;;4.07;2.22;;;28.80;57.50;;;;;;4995596;28;20053;-74
2023/07/23 13:14:43;;;;;;;2.30;1.73;;;28.90;57.70;;;;;;5006212;28;20038;-74
2023/07/23 13:17:29;;;;;;;5.05;1.85;;;28.90;56.80;;;;;;4994152;28;20738;-73
2023/07/23 13:20:15;;;;;;;3.60;1.90;;;28.90;56.20;;;;;;5000856;28;20053;-72
2023/07/23 13:23:03;;;;;;;4.38;1.98;;;29.00;56.40;;;;;;5003170;28;20041;-73
2023/07/23 13:25:50;;;;;;;3.50;2.20;;;29.00;55.70;;;;;;5006352;28;20398;-73
2023/07/23 13:28:36;;;;;;;4.05;2.20;;;29.00;55.10;;;;;;5000968;28;20088;-73
2023/07/23 13:31:22;;;;;;;4.53;2.50;;;28.90;55.60;;;;;;5004302;28;20104;-74
2023/07/23 13:34:08;;;;;;;2.80;1.98;;;28.90;55.10;;;;;;5005078;28;20137;-75
2023/07/23 13:36:54;;;;;;;3.65;2.13;;;28.90;54.90;;;;;;5001751;28;20050;-75
2023/07/23 13:39:40;;;;;;;3.80;2.22;;;28.80;54.70;;;;;;4991179;28;20482;-74
2023/07/23 13:42:25;;;;;;;4.25;2.30;;;28.80;54.90;;;;;;5001203;28;20041;-75
2023/07/23 13:45:12;;;;;;;4.97;2.83;;;28.80;54.00;;;;;;4990267;28;20585;-75
2023/07/23 13:47:58;;;;;;;5.35;3.25;;;28.70;54.10;;;;;;5004086;28;20469;-75
2023/07/23 13:50:44;;;;;;;4.15;2.45;;;28.60;53.70;;;;;;5006787;28;20049;-74
2023/07/23 13:53:31;;;;;;;4.55;3.00;;;28.60;53.70;;;;;;5005163;28;20077;-75
2023/07/23 13:56:16;;;;;;;3.88;2.38;;;28.60;53.80;;;;;;4996591;28;20038;-73
2023/07/23 13:59:02;;;;;;;3.22;2.28;;;28.50;54.20;;;;;;4999724;28;20462;-76
2023/07/23 14:01:48;;;;;;;4.18;2.38;;;28.50;54.00;;;;;;5000243;28;20077;-75
2023/07/23 14:04:34;;;;;;;4.05;2.38;;;28.50;53.90;;;;;;5002202;28;20077;-75
2023/07/23 14:07:20;;;;;;;4.18;2.30;;;28.30;53.40;;;;;;5005744;28;20092;-76
2023/07/23 14:10:07;;;;;;;9.00;2.90;;;28.20;53.90;;;;;;5003819;28;20045;-74
2023/07/23 14:12:53;;;;;;;4.20;2.83;;;28.10;54.10;;;;;;4989845;28;20466;-73
2023/07/23 14:15:38;;;;;;;5.80;2.40;;;28.00;53.80;;;;;;4989399;28;20035;-75
2023/07/23 14:18:24;;;;;;;3.90;2.38;;;27.90;53.60;;;;;;4975031;28;20047;-75
2023/07/23 14:21:10;;;;;;;5.50;2.97;;;27.80;53.60;;;;;;5008743;28;20046;-74
2023/07/23 14:24:00;;;;;;;3.70;2.85;;;27.70;53.30;;;;;;5005811;28;20104;-75
2023/07/23 14:26:46;;;;;;;5.20;2.55;;;27.60;53.20;;;;;;5001829;28;20503;-73
2023/07/23 14:29:32;;;;;;;5.15;3.00;;;27.50;53.70;;;;;;5006037;28;20084;-73
2023/07/23 14:32:18;;;;;;;13.82;2.80;;;27.50;52.70;;;;;;4993082;28;20052;-74
2023/07/23 14:35:05;;;;;;;5.20;2.50;;;27.40;52.30;;;;;;4951841;28;1132865;-74
2023/07/23 14:37:51;;;;;;;5.32;3.00;;;27.40;52.30;;;;;;5002130;28;20054;-74
2023/07/23 14:40:37;;;;;;;9.23;3.72;;;27.40;52.30;;;;;;5005585;28;20128;-74
2023/07/23 14:43:23;;;;;;;9.02;2.75;;;27.30;52.40;;;;;;5006879;28;20048;-68
2023/07/23 14:46:09;;;;;;;5.80;3.17;;;27.20;52.50;;;;;;5007813;28;20442;-76
2023/07/23 14:48:55;;;;;;;6.53;3.35;;;27.20;52.70;;;;;;4994712;28;20061;-77
2023/07/23 14:51:42;;;;;;;5.47;3.45;;;27.20;52.90;;;;;;4995414;28;20066;-77
2023/07/23 14:54:28;;;;;;;6.25;3.28;;;27.20;53.10;;;;;;4996753;28;20487;-77
2023/07/23 14:57:14;;;;;;;8.10;3.45;;;27.20;53.40;;;;;;4999923;28;20484;-77
2023/07/23 14:59:59;;;;;;;5.80;3.22;;;27.20;53.60;;;;;;5004077;28;20042;-76
2023/07/23 15:02:45;;;;;;;5.43;2.95;;;27.20;53.80;;;;;;5002962;28;20050;-77
2023/07/23 15:05:31;;;;;;;5.57;3.10;;;27.10;54.00;;;;;;5005419;28;20044;-76
2023/07/23 15:08:17;;;;;;;6.22;3.55;;;27.00;54.20;;;;;;4995715;28;20077;-78
2023/07/23 15:11:03;;;;;;;6.03;3.53;;;27.00;54.50;;;;;;5006640;28;20097;-76
2023/07/23 15:13:50;;;;;;;6.28;2.97;;;26.90;54.90;;;;;;5001086;28;20529;-76
2023/07/23 15:16:36;;;;;;;5.60;3.22;;;26.80;54.90;;;;;;5007628;28;20076;-75